createdAt,value
2018-04-27T21:49:19.215Z,100875.02
2018-04-27T21:49:42.792Z,100883.00
2018-04-27T21:50:05.652Z,100874.76
2018-04-27T21:50:49.291Z,100871.03
2018-04-27T21:51:10.899Z,100872.62
2018-04-27T21:51:32.759Z,100866.41
2018-04-27T21:51:54.523Z,100868.05
2018-04-27T21:52:16.234Z,100871.13
2018-04-27T21:52:38.053Z,100868.50
2018-04-27T21:52:59.748Z,100867.59
2018-04-27T21:53:21.305Z,100867.06
2018-04-27T21:53:42.992Z,100862.16
2018-04-27T21:54:04.672Z,100865.56
2018-04-27T21:54:26.494Z,100864.25
2018-04-27T21:54:48.048Z,100870.34
2018-04-27T21:55:09.900Z,100865.04
2018-04-27T21:55:31.715Z,100865.89
2018-04-27T21:55:53.524Z,100865.56
2018-04-27T21:56:15.175Z,100869.09
2018-04-27T21:56:37.147Z,100861.64
2018-04-27T21:56:58.961Z,100864.25
2018-04-27T21:57:20.774Z,100863.08
2018-04-27T21:57:42.478Z,100863.01
2018-04-27T21:58:04.018Z,100865.17
2018-04-27T21:58:25.719Z,100865.56
2018-04-27T21:58:47.327Z,100864.19
2018-04-27T21:59:08.872Z,100864.70
2018-04-27T21:59:30.517Z,100864.38
2018-04-27T21:59:52.058Z,100862.09
2018-04-27T22:00:13.643Z,100862.29
2018-04-27T22:00:35.258Z,100864.58
2018-04-27T22:00:56.846Z,100859.16
2018-04-27T22:01:18.443Z,100863.27
2018-04-27T22:01:40.151Z,100862.03
2018-04-27T22:02:01.950Z,100858.50
2018-04-27T22:02:23.591Z,100860.27
2018-04-27T22:02:45.250Z,100862.36
2018-04-27T22:03:06.919Z,100862.75
2018-04-27T22:03:28.593Z,100861.05
2018-04-27T22:03:50.486Z,100862.42
2018-04-27T22:04:12.422Z,100863.27
2018-04-27T22:04:34.234Z,100856.41
2018-04-27T22:04:55.938Z,100863.86
2018-04-27T22:05:17.755Z,100861.31
2018-04-27T22:05:39.336Z,100857.58
2018-04-27T22:06:00.913Z,100857.32
2018-04-27T22:06:22.477Z,100857.45
2018-04-27T22:06:44.104Z,100855.30
2018-04-27T22:07:05.682Z,100853.53
2018-04-27T22:07:27.276Z,100851.05
2018-04-27T22:07:49.169Z,100854.91
2018-04-27T22:08:10.738Z,100849.94
2018-04-27T22:08:32.381Z,100846.47
2018-04-27T22:08:54.010Z,100843.91
2018-04-27T22:09:15.497Z,100841.82
2018-04-27T22:09:37.135Z,100844.11
2018-04-27T22:09:58.726Z,100839.01
2018-04-27T22:10:20.302Z,100841.07
2018-04-27T22:10:41.868Z,100837.87
2018-04-27T22:11:03.465Z,100835.44
2018-04-27T22:11:25.056Z,100838.00
2018-04-27T22:11:46.688Z,100842.38
2018-04-27T22:12:08.273Z,100836.81
2018-04-27T22:12:29.855Z,100838.91
2018-04-27T22:12:51.492Z,100839.38
2018-04-27T22:13:13.070Z,100839.70
2018-04-27T22:13:35.605Z,100844.28
2018-04-27T22:13:57.198Z,100844.21
2018-04-27T22:14:18.888Z,100844.80
2018-04-27T22:14:40.469Z,100840.09
2018-04-27T22:15:02.056Z,100840.55
2018-04-27T22:15:23.664Z,100839.24
2018-04-27T22:15:45.277Z,100839.77
2018-04-27T22:16:06.916Z,100838.72
2018-04-27T22:16:28.503Z,100840.48
2018-04-27T22:16:50.127Z,100842.41
2018-04-27T22:17:11.707Z,100846.53
2018-04-27T22:17:33.298Z,100841.43
2018-04-27T22:17:54.842Z,100846.08
2018-04-27T22:18:16.484Z,100846.08
2018-04-27T22:18:38.029Z,100847.12
2018-04-27T22:18:59.555Z,100853.07
2018-04-27T22:19:21.087Z,100851.38
2018-04-27T22:19:43.041Z,100849.80
2018-04-27T22:20:04.738Z,100854.05
2018-04-27T22:20:26.869Z,100850.33
2018-04-27T22:20:48.802Z,100848.09
2018-04-27T22:21:10.805Z,100848.69
2018-04-27T22:21:32.612Z,100852.02
2018-04-27T22:21:54.428Z,100852.81
2018-04-27T22:22:16.133Z,100852.67
2018-04-27T22:22:37.759Z,100856.21
2018-04-27T22:22:59.547Z,100853.59
2018-04-27T22:23:21.194Z,100850.91
2018-04-27T22:23:42.868Z,100852.09
2018-04-27T22:24:04.778Z,100849.41
2018-04-27T22:24:26.707Z,100849.47
2018-04-27T22:24:48.401Z,100851.30
2018-04-27T22:25:10.214Z,100852.09
2018-04-27T22:25:32.039Z,100848.00
2018-04-27T22:25:53.693Z,100840.94
2018-04-27T22:26:15.280Z,100852.31
2018-04-27T22:26:36.838Z,100846.69
2018-04-27T22:26:58.465Z,100851.56
2018-04-27T22:27:20.156Z,100849.23
2018-04-27T22:27:41.728Z,100843.94
2018-04-27T22:28:03.281Z,100846.95
2018-04-27T22:28:24.803Z,100846.81
2018-04-27T22:28:46.382Z,100848.45
2018-04-27T22:29:07.959Z,100848.84
2018-04-27T22:29:29.530Z,100847.60
2018-04-27T22:29:51.104Z,100844.53
2018-04-27T22:30:12.658Z,100847.60
2018-04-27T22:30:34.249Z,100844.92
2018-04-27T22:30:55.920Z,100848.38
2018-04-27T22:31:17.933Z,100846.62
2018-04-27T22:31:39.858Z,100843.16
2018-04-27T22:32:01.765Z,100840.02
2018-04-27T22:32:23.881Z,100842.30
2018-04-27T22:32:45.630Z,100842.70
2018-04-27T22:33:07.334Z,100840.02
2018-04-27T22:33:29.212Z,100841.78
2018-04-27T22:33:51.149Z,100844.72
2018-04-27T22:34:13.043Z,100845.11
2018-04-27T22:34:35.127Z,100842.36
2018-04-27T22:34:56.949Z,100841.84
2018-04-27T22:35:19.205Z,100838.70
2018-04-27T22:35:40.938Z,100839.55
2018-04-27T22:36:02.713Z,100841.25
2018-04-27T22:36:24.395Z,100838.53
2018-04-27T22:36:46.306Z,100846.31
2018-04-27T22:37:08.144Z,100838.08
2018-04-27T22:37:29.851Z,100838.92
2018-04-27T22:37:51.765Z,100841.61
2018-04-27T22:38:13.483Z,100843.77
2018-04-27T22:38:35.081Z,100842.23
2018-04-27T22:38:56.850Z,100843.55
2018-04-27T22:39:18.603Z,100841.84
2018-04-27T22:39:40.229Z,100845.38
2018-04-27T22:40:01.978Z,100845.31
2018-04-27T22:40:23.563Z,100844.33
2018-04-27T22:40:45.337Z,100846.09
2018-04-27T22:41:06.901Z,100843.08
2018-04-27T22:41:28.643Z,100842.45
2018-04-27T22:41:50.276Z,100841.94
2018-04-27T22:42:11.969Z,100847.63
2018-04-27T22:42:33.677Z,100844.16
2018-04-27T22:42:55.589Z,100841.34
2018-04-27T22:43:17.302Z,100843.17
2018-04-27T22:43:39.009Z,100846.97
2018-04-27T22:44:00.720Z,100844.94
2018-04-27T22:44:22.427Z,100841.25
2018-04-27T22:44:44.443Z,100840.30
2018-04-27T22:45:06.103Z,100845.01
2018-04-27T22:45:27.763Z,100849.72
2018-04-27T22:45:49.470Z,100843.70
2018-04-27T22:46:11.283Z,100845.08
2018-04-27T22:46:32.808Z,100844.33
2018-04-27T22:46:54.341Z,100844.69
2018-04-27T22:47:15.886Z,100851.88
2018-04-27T22:47:37.437Z,100845.20
2018-04-27T22:47:58.987Z,100849.52
2018-04-27T22:48:20.532Z,100848.08
2018-04-27T22:48:42.051Z,100845.06
2018-04-27T22:49:03.586Z,100842.91
2018-04-27T22:49:25.132Z,100851.34
2018-04-27T22:49:46.684Z,100843.56
2018-04-27T22:50:08.241Z,100839.64
2018-04-27T22:50:29.775Z,100842.59
2018-04-27T22:50:51.305Z,100847.36
2018-04-27T22:51:12.828Z,100846.38
2018-04-27T22:51:34.345Z,100839.84
2018-04-27T22:51:55.860Z,100846.83
2018-04-27T22:52:17.388Z,100844.61
2018-04-27T22:52:38.909Z,100846.31
2018-04-27T22:53:00.413Z,100841.14
2018-04-27T22:53:21.974Z,100848.47
2018-04-27T22:53:43.501Z,100837.09
2018-04-27T22:54:05.011Z,100840.30
2018-04-27T22:54:26.530Z,100843.95
2018-04-27T22:54:48.038Z,100839.97
2018-04-27T22:55:09.546Z,100847.75
2018-04-27T22:55:31.060Z,100844.22
2018-04-27T22:55:52.580Z,100838.20
2018-04-27T22:56:14.094Z,100838.34
2018-04-27T22:56:35.599Z,100838.34
2018-04-27T22:56:57.118Z,100840.95
2018-04-27T22:57:18.646Z,100839.71
2018-04-27T22:57:40.150Z,100839.58
2018-04-27T22:58:01.663Z,100836.44
2018-04-27T22:58:23.202Z,100842.00
2018-04-27T22:58:44.720Z,100839.84
2018-04-27T22:59:06.234Z,100832.38
2018-04-27T22:59:27.738Z,100844.55
2018-04-27T22:59:49.253Z,100839.70
2018-04-27T23:00:10.762Z,100841.80
2018-04-27T23:00:32.293Z,100840.42
2018-04-27T23:00:53.798Z,100837.35
2018-04-27T23:01:15.318Z,100837.80
2018-04-27T23:01:36.840Z,100840.75
2018-04-27T23:01:58.359Z,100834.67
2018-04-27T23:02:19.895Z,100841.98
2018-04-27T23:02:41.420Z,100842.05
2018-04-27T23:03:02.936Z,100843.75
2018-04-27T23:03:24.463Z,100841.07
2018-04-27T23:03:45.982Z,100837.08
2018-04-27T23:04:07.504Z,100842.77
2018-04-27T23:04:29.020Z,100840.16
2018-04-27T23:04:50.528Z,100847.16
2018-04-27T23:05:12.052Z,100841.07
2018-04-27T23:05:33.570Z,100843.63
2018-04-27T23:05:55.110Z,100842.21
2018-04-27T23:06:16.614Z,100837.44
2018-04-27T23:06:38.149Z,100839.46
2018-04-27T23:06:59.663Z,100838.62
2018-04-27T23:07:21.199Z,100841.69
2018-04-27T23:07:42.720Z,100841.16
2018-04-27T23:08:04.243Z,100836.78
2018-04-27T23:08:25.763Z,100836.72
2018-04-27T23:08:47.339Z,100838.48
2018-04-27T23:09:08.813Z,100836.65
2018-04-27T23:09:30.344Z,100839.27
2018-04-27T23:09:51.861Z,100840.51
2018-04-27T23:10:13.375Z,100836.52
2018-04-27T23:10:34.893Z,100836.58
2018-04-27T23:10:56.399Z,100832.20
2018-04-27T23:11:17.911Z,100835.21
2018-04-27T23:11:39.443Z,100837.76
2018-04-27T23:12:00.967Z,100832.92
2018-04-27T23:12:22.500Z,100835.47
2018-04-27T23:12:44.018Z,100833.77
2018-04-27T23:13:05.531Z,100836.91
2018-04-27T23:13:27.058Z,100833.77
2018-04-27T23:13:48.578Z,100830.23
2018-04-27T23:14:10.093Z,100828.47
2018-04-27T23:14:31.599Z,100832.00
2018-04-27T23:14:53.116Z,100828.54
2018-04-27T23:15:14.623Z,100834.16
2018-04-27T23:15:36.138Z,100827.63
2018-04-27T23:15:57.664Z,100831.55
2018-04-27T23:16:19.180Z,100828.86
2018-04-27T23:16:40.705Z,100826.70
2018-04-27T23:17:02.229Z,100824.48
2018-04-27T23:17:23.761Z,100825.41
2018-04-27T23:17:45.268Z,100822.33
2018-04-27T23:18:06.792Z,100821.41
2018-04-27T23:18:28.321Z,100826.58
2018-04-27T23:18:49.836Z,100819.65
2018-04-27T23:19:11.353Z,100825.73
2018-04-27T23:19:32.855Z,100818.27
2018-04-27T23:19:54.359Z,100813.89
2018-04-27T23:20:15.876Z,100814.36
2018-04-27T23:20:37.384Z,100819.52
2018-04-27T23:20:58.895Z,100816.91
2018-04-27T23:21:20.402Z,100817.36
2018-04-27T23:21:41.907Z,100820.43
2018-04-27T23:22:03.421Z,100816.91
2018-04-27T23:22:24.978Z,100815.14
2018-04-27T23:22:46.519Z,100816.44
2018-04-27T23:23:08.029Z,100819.06
2018-04-27T23:23:29.532Z,100818.59
2018-04-27T23:23:51.048Z,100816.77
2018-04-27T23:24:12.561Z,100818.14
2018-04-27T23:24:34.089Z,100813.77
2018-04-27T23:24:55.600Z,100818.08
2018-04-27T23:25:17.112Z,100822.00
2018-04-27T23:25:38.632Z,100820.30
2018-04-27T23:26:00.147Z,100816.31
2018-04-27T23:26:21.677Z,100818.43
2018-04-27T23:26:43.178Z,100818.37
2018-04-27T23:27:04.699Z,100818.82
2018-04-27T23:27:26.310Z,100816.20
2018-04-27T23:27:47.825Z,100816.31
2018-04-27T23:28:09.345Z,100818.99
2018-04-27T23:28:30.852Z,100819.28
2018-04-27T23:28:52.359Z,100817.45
2018-04-27T23:29:13.872Z,100811.89
2018-04-27T23:29:35.380Z,100819.60
2018-04-27T23:29:56.899Z,100814.38
2018-04-27T23:30:18.417Z,100813.14
2018-04-27T23:30:39.929Z,100816.14
2018-04-27T23:31:01.453Z,100807.91
2018-04-27T23:31:22.968Z,100814.05
2018-04-27T23:31:44.482Z,100807.16
2018-04-27T23:32:05.990Z,100809.28
2018-04-27T23:32:27.526Z,100810.59
2018-04-27T23:32:49.045Z,100810.98
2018-04-27T23:33:10.562Z,100810.98
2018-04-27T23:33:32.086Z,100813.53
2018-04-27T23:33:53.595Z,100808.76
2018-04-27T23:34:15.127Z,100813.06
2018-04-27T23:34:36.661Z,100813.98
2018-04-27T23:34:58.181Z,100806.53
2018-04-27T23:35:19.709Z,100813.85
2018-04-27T23:35:41.235Z,100808.16
2018-04-27T23:36:02.761Z,100812.67
2018-04-27T23:36:24.280Z,100809.38
2018-04-27T23:36:45.787Z,100807.16
2018-04-27T23:37:07.302Z,100814.91
2018-04-27T23:37:28.841Z,100814.05
2018-04-27T23:37:50.369Z,100812.45
2018-04-27T23:38:11.901Z,100809.77
2018-04-27T23:38:33.428Z,100813.70
2018-04-27T23:38:54.936Z,100809.77
2018-04-27T23:39:16.499Z,100812.28
2018-04-27T23:39:38.012Z,100811.38
2018-04-27T23:39:59.524Z,100807.45
2018-04-27T23:40:21.061Z,100808.92
2018-04-27T23:40:42.598Z,100809.67
2018-04-27T23:41:04.112Z,100810.06
2018-04-27T23:41:25.630Z,100814.44
2018-04-27T23:41:47.140Z,100813.06
2018-04-27T23:42:08.644Z,100808.30
2018-04-27T23:42:30.167Z,100812.75
2018-04-27T23:42:51.682Z,100810.52
2018-04-27T23:43:13.205Z,100805.69
2018-04-27T23:43:34.719Z,100804.31
2018-04-27T23:43:56.235Z,100806.53
2018-04-27T23:44:17.740Z,100801.38
2018-04-27T23:44:39.243Z,100802.61
2018-04-27T23:45:00.747Z,100807.77
2018-04-27T23:45:22.265Z,100803.85
2018-04-27T23:45:43.790Z,100803.00
2018-04-27T23:46:05.303Z,100804.77
2018-04-27T23:46:26.821Z,100797.84
2018-04-27T23:46:48.339Z,100796.41
2018-04-27T23:47:09.851Z,100801.30
2018-04-27T23:47:31.400Z,100804.84
2018-04-27T23:47:52.913Z,100805.23
2018-04-27T23:48:14.433Z,100798.17
2018-04-27T23:48:35.963Z,100803.33
2018-04-27T23:48:57.476Z,100803.79
2018-04-27T23:49:18.988Z,100806.34
2018-04-27T23:49:40.514Z,100800.19
2018-04-27T23:50:02.033Z,100802.87
2018-04-27T23:50:23.559Z,100802.34
2018-04-27T23:50:45.076Z,100810.33
2018-04-27T23:51:06.669Z,100800.25
2018-04-27T23:51:28.181Z,100802.41
2018-04-27T23:51:49.691Z,100803.79
2018-04-27T23:52:11.201Z,100808.56
2018-04-27T23:52:32.736Z,100805.88
2018-04-27T23:52:54.249Z,100803.66
2018-04-27T23:53:15.764Z,100807.64
2018-04-27T23:53:37.295Z,100801.56
2018-04-27T23:53:58.819Z,100802.34
2018-04-27T23:54:20.331Z,100807.19
2018-04-27T23:54:41.856Z,100805.81
2018-04-27T23:55:03.383Z,100800.91
2018-04-27T23:55:24.888Z,100799.59
2018-04-27T23:55:46.408Z,100797.77
2018-04-27T23:56:07.922Z,100801.23
2018-04-27T23:56:29.423Z,100804.70
2018-04-27T23:56:51.260Z,100798.55
2018-04-27T23:57:12.859Z,100802.02
2018-04-27T23:57:34.404Z,100797.64
2018-04-27T23:57:55.913Z,100795.41
2018-04-27T23:58:17.423Z,100799.01
2018-04-27T23:58:38.941Z,100796.46
2018-04-27T23:59:00.458Z,100792.02
2018-04-27T23:59:21.977Z,100790.25
2018-04-27T23:59:43.500Z,100795.94
